createdAt,value
2019-06-27T00:12:56.230Z,28.15
2019-06-27T00:16:01.535Z,28.27
2019-06-27T01:54:56.236Z,26.52
2019-06-27T02:53:33.798Z,25.51
2019-06-27T03:39:54.404Z,25.09
2019-06-27T03:42:59.152Z,25.03
2019-06-27T03:46:03.994Z,24.97
2019-06-27T03:52:13.847Z,24.79
2019-06-27T05:30:57.626Z,24.91
2019-06-27T05:34:03.046Z,24.93
2019-06-27T07:09:43.782Z,26.47
2019-06-27T07:15:54.828Z,26.57
2019-06-27T07:19:00.609Z,26.68
2019-06-27T07:22:05.508Z,26.76
2019-06-27T09:06:58.079Z,28.87
2019-06-27T09:22:23.785Z,29.24
2019-06-27T09:40:53.873Z,29.45
2019-06-27T09:53:14.899Z,29.41
2019-06-27T10:54:57.795Z,30.98
2019-06-27T10:58:02.920Z,30.97
2019-06-27T11:22:43.783Z,31.49
2019-06-27T11:28:54.132Z,31.55
2019-06-27T11:47:24.224Z,32.19
2019-06-27T11:53:34.151Z,31.59
2019-06-27T12:05:54.000Z,32.17
2019-06-27T12:42:56.136Z,32.59
2019-06-27T13:53:53.847Z,33.15
2019-06-27T14:30:56.913Z,34.07
2019-06-27T14:52:35.063Z,34.13
2019-06-27T15:04:54.553Z,33.98
2019-06-27T15:35:52.178Z,34.11
2019-06-27T15:51:14.187Z,33.89
2019-06-27T16:18:59.565Z,33.69
2019-06-27T18:06:55.933Z,32.29
2019-06-27T18:10:00.838Z,32.44
2019-06-27T20:04:34.265Z,29.01
2019-06-27T20:13:50.533Z,28.60
2019-06-27T20:16:55.567Z,28.41
2019-06-27T20:20:00.428Z,28.35
2019-06-27T20:23:05.509Z,28.33
2019-06-27T20:26:10.326Z,28.32
2019-06-27T20:29:15.494Z,28.28
2019-06-27T20:32:20.328Z,28.29
2019-06-27T20:35:25.085Z,28.19
2019-06-27T20:38:35.041Z,28.13
2019-06-27T20:41:36.310Z,27.91
2019-06-27T20:44:41.096Z,27.80
2019-06-27T20:47:46.077Z,27.67
2019-06-27T20:50:51.398Z,27.66
2019-06-27T20:53:56.236Z,27.56
2019-06-27T20:57:01.093Z,27.39
2019-06-27T21:00:06.576Z,27.31
2019-06-27T21:03:11.821Z,26.87
2019-06-27T21:06:16.801Z,26.58
2019-06-27T21:09:21.975Z,26.48
2019-06-27T21:12:26.729Z,26.22
2019-06-27T21:15:31.685Z,25.89
2019-06-27T21:18:36.613Z,25.79
2019-06-27T21:21:41.387Z,25.79
2019-06-27T21:24:46.510Z,25.56
2019-06-27T21:27:51.543Z,25.46
2019-06-27T21:30:56.308Z,25.48
2019-06-27T21:34:01.409Z,25.53
2019-06-27T21:37:06.303Z,25.55
2019-06-27T21:40:11.271Z,25.62
2019-06-27T21:43:17.409Z,25.44
2019-06-27T21:46:22.577Z,25.13
2019-06-27T21:49:27.425Z,25.08
2019-06-27T21:52:32.268Z,25.09
2019-06-27T21:55:37.080Z,24.98
2019-06-27T21:58:41.959Z,25.05
2019-06-27T22:01:47.221Z,24.85
2019-06-27T22:04:51.990Z,24.84
2019-06-27T22:07:56.826Z,24.85
2019-06-27T22:11:02.455Z,24.73
2019-06-27T22:14:07.750Z,24.43
2019-06-27T22:17:12.630Z,24.40
2019-06-27T22:20:17.709Z,24.09
2019-06-27T22:23:22.861Z,24.18
2019-06-27T22:26:27.998Z,24.17
2019-06-27T22:29:32.737Z,24.15
2019-06-27T22:32:37.547Z,24.27
2019-06-27T22:35:42.412Z,24.29
2019-06-27T22:39:05.100Z,24.27
2019-06-27T22:42:28.099Z,24.28
2019-06-27T22:45:51.081Z,24.34
2019-06-27T22:48:58.599Z,24.33
2019-06-27T22:52:15.362Z,24.05
2019-06-27T22:55:22.318Z,23.94
2019-06-27T22:58:27.431Z,23.95
2019-06-27T23:01:32.501Z,23.72
2019-06-27T23:04:37.343Z,23.82
2019-06-27T23:07:43.395Z,23.72
2019-06-27T23:10:48.445Z,23.36
2019-06-27T23:13:53.353Z,23.27
2019-06-27T23:16:59.196Z,22.71
2019-06-27T23:20:04.338Z,22.47
2019-06-27T23:23:09.137Z,22.78
2019-06-27T23:26:14.892Z,22.99
2019-06-27T23:29:19.904Z,23.14
2019-06-27T23:32:25.173Z,23.28
2019-06-27T23:35:30.376Z,23.40
2019-06-27T23:38:35.170Z,23.41
2019-06-27T23:41:40.240Z,23.05
2019-06-27T23:44:45.320Z,23.12
2019-06-27T23:47:50.192Z,23.00
2019-06-27T23:50:54.918Z,22.88
2019-06-27T23:53:59.927Z,22.88
2019-06-27T23:57:06.030Z,22.89
